SWA116 KPHX-KMDW
Flight info
| Callsign | SWA116 |
|---|---|
| Flight time | 2h 38m |
| Altitude | 37000 |
| Route | FORPE1 ABQ FTI KENTO KK51C IRK ENDEE8 |
| Aircraft | B738/M-SADE2E3GIJ4RWZ/LB1D1 |
Departure
| Time | 2026-05-06 01:03 |
|---|---|
| Airport | Phoenix Sky Harbor International Airport (KPHX) |
Arrival
| Time | 2026-05-06 03:41 |
|---|---|
| Airport | Chicago Midway International Airport (KMDW) |
| Time | Latitude | Longitude | Altitude | Speed | Heading |
|---|---|---|---|---|---|
| 2026-05-06 00:30 | 33.43342 | -111.99895 | 1115 ft | 0 kts | 4° |
| 2026-05-06 00:53 | 33.43322 | -111.99898 | 1114 ft | 4 kts | 12° |
| 2026-05-06 00:53 | 33.43297 | -111.99908 | 1113 ft | 4 kts | 35° |
| 2026-05-06 00:54 | 33.43283 | -111.99930 | 1114 ft | 3 kts | 87° |
| 2026-05-06 00:54 | 33.43283 | -111.99933 | 1115 ft | 0 kts | 90° |
| 2026-05-06 00:58 | 33.43283 | -111.99910 | 1114 ft | 7 kts | 90° |
| 2026-05-06 00:58 | 33.43283 | -111.99832 | 1120 ft | 10 kts | 90° |
| 2026-05-06 00:59 | 33.43283 | -111.99742 | 1123 ft | 11 kts | 90° |
| 2026-05-06 00:59 | 33.43283 | -111.99644 | 1117 ft | 13 kts | 90° |
| 2026-05-06 00:59 | 33.43283 | -111.99528 | 1119 ft | 16 kts | 90° |
| 2026-05-06 00:59 | 33.43283 | -111.99384 | 1118 ft | 18 kts | 90° |
| 2026-05-06 01:00 | 33.43273 | -111.99260 | 1116 ft | 12 kts | 127° |
| 2026-05-06 01:00 | 33.43207 | -111.99263 | 1119 ft | 8 kts | 221° |
| 2026-05-06 01:00 | 33.43195 | -111.99276 | 1119 ft | 0 kts | 224° |
| 2026-05-06 01:01 | 33.43188 | -111.99285 | 1115 ft | 5 kts | 224° |
| 2026-05-06 01:01 | 33.43136 | -111.99343 | 1120 ft | 14 kts | 219° |
| 2026-05-06 01:02 | 33.43104 | -111.99455 | 1122 ft | 19 kts | 270° |
| 2026-05-06 01:02 | 33.43104 | -111.99887 | 1123 ft | 86 kts | 270° |
| 2026-05-06 01:02 | 33.43104 | -112.00859 | 1125 ft | 145 kts | 269° |
| 2026-05-06 01:02 | 33.43108 | -112.02185 | 1531 ft | 163 kts | 268° |
| 2026-05-06 01:03 | 33.43089 | -112.03581 | 2179 ft | 176 kts | 268° |
| 2026-05-06 01:03 | 33.43050 | -112.05099 | 2687 ft | 193 kts | 266° |
| 2026-05-06 01:03 | 33.42959 | -112.06789 | 2874 ft | 213 kts | 257° |
| 2026-05-06 01:03 | 33.42456 | -112.08482 | 3351 ft | 219 kts | 249° |
| 2026-05-06 01:04 | 33.41892 | -112.10278 | 3588 ft | 244 kts | 250° |
| 2026-05-06 01:04 | 33.41296 | -112.12232 | 4152 ft | 251 kts | 250° |
| 2026-05-06 01:04 | 33.40699 | -112.14211 | 4893 ft | 255 kts | 250° |
| 2026-05-06 01:04 | 33.39930 | -112.16121 | 5644 ft | 256 kts | 232° |
| 2026-05-06 01:05 | 33.38549 | -112.17473 | 6365 ft | 264 kts | 208° |
| 2026-05-06 01:05 | 33.36741 | -112.18003 | 6975 ft | 275 kts | 183° |
| 2026-05-06 01:05 | 33.34831 | -112.17616 | 7697 ft | 282 kts | 167° |
| 2026-05-06 01:05 | 33.32937 | -112.16937 | 8346 ft | 287 kts | 166° |
| 2026-05-06 01:06 | 33.31021 | -112.16232 | 9054 ft | 289 kts | 165° |
| 2026-05-06 01:06 | 33.29133 | -112.15379 | 9721 ft | 295 kts | 149° |
| 2026-05-06 01:06 | 33.27590 | -112.13790 | 10381 ft | 299 kts | 137° |
| 2026-05-06 01:06 | 33.26092 | -112.12000 | 10793 ft | 311 kts | 137° |
| 2026-05-06 01:07 | 33.24793 | -112.09896 | 11290 ft | 323 kts | 115° |
| 2026-05-06 01:07 | 33.24310 | -112.07263 | 11932 ft | 330 kts | 90° |
| 2026-05-06 01:07 | 33.24551 | -112.04517 | 12569 ft | 336 kts | 83° |
| 2026-05-06 01:07 | 33.24920 | -112.01741 | 13246 ft | 340 kts | 82° |
| 2026-05-06 01:08 | 33.25285 | -111.98938 | 13920 ft | 343 kts | 83° |
| 2026-05-06 01:08 | 33.25633 | -111.96099 | 14516 ft | 348 kts | 83° |
| 2026-05-06 01:08 | 33.26096 | -111.93238 | 15122 ft | 353 kts | 74° |
| 2026-05-06 01:08 | 33.27043 | -111.90507 | 15748 ft | 358 kts | 63° |
| 2026-05-06 01:09 | 33.28204 | -111.87852 | 16373 ft | 362 kts | 62° |
| 2026-05-06 01:09 | 33.29405 | -111.85191 | 16975 ft | 367 kts | 62° |
| 2026-05-06 01:09 | 33.30623 | -111.82492 | 17596 ft | 371 kts | 62° |
| 2026-05-06 01:09 | 33.31845 | -111.79754 | 18188 ft | 375 kts | 62° |
| 2026-05-06 01:10 | 33.33072 | -111.76977 | 18673 ft | 381 kts | 62° |
| 2026-05-06 01:10 | 33.34316 | -111.74140 | 19096 ft | 389 kts | 62° |
| 2026-05-06 01:10 | 33.35578 | -111.71251 | 19536 ft | 395 kts | 62° |
| 2026-05-06 01:10 | 33.36843 | -111.68345 | 19961 ft | 402 kts | 62° |
| 2026-05-06 01:11 | 33.38152 | -111.65336 | 20195 ft | 416 kts | 63° |
| 2026-05-06 01:11 | 33.39506 | -111.62221 | 20517 ft | 425 kts | 63° |
| 2026-05-06 01:11 | 33.40879 | -111.59062 | 20948 ft | 431 kts | 63° |
| 2026-05-06 01:11 | 33.42271 | -111.55855 | 21380 ft | 437 kts | 63° |
| 2026-05-06 01:12 | 33.43534 | -111.52520 | 21760 ft | 443 kts | 69° |
| 2026-05-06 01:12 | 33.44650 | -111.49052 | 22150 ft | 450 kts | 71° |
| 2026-05-06 01:12 | 33.45733 | -111.45513 | 22552 ft | 456 kts | 72° |
| 2026-05-06 01:12 | 33.46824 | -111.41924 | 22932 ft | 462 kts | 72° |
| 2026-05-06 01:13 | 33.47948 | -111.38270 | 23199 ft | 470 kts | 71° |
| 2026-05-06 01:13 | 33.49093 | -111.34600 | 23690 ft | 472 kts | 71° |
| 2026-05-06 01:13 | 33.50254 | -111.30899 | 24011 ft | 478 kts | 71° |
| 2026-05-06 01:13 | 33.51434 | -111.27155 | 24350 ft | 482 kts | 71° |
| 2026-05-06 01:14 | 33.53787 | -111.19602 | 25352 ft | 476 kts | 73° |
| 2026-05-06 01:14 | 33.54855 | -111.15891 | 26128 ft | 467 kts | 75° |
| 2026-05-06 01:14 | 33.55879 | -111.12199 | 26605 ft | 468 kts | 76° |
| 2026-05-06 01:15 | 33.56890 | -111.08504 | 26820 ft | 475 kts | 76° |
| 2026-05-06 01:15 | 33.57926 | -111.04716 | 27108 ft | 480 kts | 76° |
| 2026-05-06 01:15 | 33.58978 | -111.00902 | 27487 ft | 482 kts | 76° |
| 2026-05-06 01:15 | 33.60043 | -110.97059 | 27810 ft | 486 kts | 76° |
| 2026-05-06 01:16 | 33.61119 | -110.93192 | 28081 ft | 491 kts | 76° |
| 2026-05-06 01:16 | 33.62204 | -110.89295 | 28417 ft | 494 kts | 76° |
| 2026-05-06 01:16 | 33.63295 | -110.85378 | 28788 ft | 497 kts | 76° |
| 2026-05-06 01:16 | 33.64393 | -110.81434 | 29114 ft | 500 kts | 76° |
| 2026-05-06 01:17 | 33.65496 | -110.77460 | 29378 ft | 505 kts | 76° |
| 2026-05-06 01:17 | 33.66609 | -110.73439 | 29589 ft | 510 kts | 77° |
| 2026-05-06 01:17 | 33.67728 | -110.69387 | 29910 ft | 512 kts | 76° |
| 2026-05-06 01:17 | 33.68851 | -110.65323 | 30213 ft | 514 kts | 76° |
| 2026-05-06 01:18 | 33.69980 | -110.61238 | 30525 ft | 515 kts | 76° |
| 2026-05-06 01:18 | 33.71093 | -110.57202 | 30793 ft | 516 kts | 76° |
| 2026-05-06 01:18 | 33.72225 | -110.53085 | 31039 ft | 518 kts | 76° |
| 2026-05-06 01:18 | 33.73357 | -110.48960 | 31285 ft | 520 kts | 76° |
| 2026-05-06 01:19 | 33.74490 | -110.44829 | 31541 ft | 521 kts | 76° |
| 2026-05-06 01:19 | 33.75622 | -110.40696 | 31878 ft | 521 kts | 76° |
| 2026-05-06 01:19 | 33.76758 | -110.36539 | 32114 ft | 524 kts | 76° |
| 2026-05-06 01:19 | 33.77897 | -110.32367 | 32357 ft | 525 kts | 76° |
| 2026-05-06 01:20 | 33.79018 | -110.28258 | 32679 ft | 525 kts | 76° |
| 2026-05-06 01:20 | 33.80160 | -110.24068 | 32871 ft | 528 kts | 76° |
| 2026-05-06 01:20 | 33.82466 | -110.15578 | 33018 ft | 539 kts | 76° |
| 2026-05-06 01:21 | 33.84810 | -110.06919 | 33168 ft | 550 kts | 76° |
| 2026-05-06 01:21 | 33.87199 | -109.98076 | 33318 ft | 561 kts | 76° |
| 2026-05-06 01:22 | 33.88406 | -109.93601 | 33430 ft | 564 kts | 76° |
| 2026-05-06 01:22 | 33.89618 | -109.89099 | 33577 ft | 567 kts | 76° |
| 2026-05-06 01:22 | 33.90832 | -109.84583 | 33838 ft | 566 kts | 76° |
| 2026-05-06 01:22 | 33.92026 | -109.80141 | 34125 ft | 564 kts | 75° |
| 2026-05-06 01:23 | 33.93228 | -109.75654 | 34411 ft | 562 kts | 76° |
| 2026-05-06 01:23 | 33.94426 | -109.71177 | 34654 ft | 561 kts | 76° |
| 2026-05-06 01:23 | 33.95618 | -109.66706 | 34882 ft | 561 kts | 76° |
| 2026-05-06 01:23 | 33.96809 | -109.62234 | 35131 ft | 560 kts | 76° |
| 2026-05-06 01:24 | 33.97996 | -109.57770 | 35336 ft | 560 kts | 75° |
| 2026-05-06 01:24 | 33.99182 | -109.53302 | 35565 ft | 559 kts | 76° |
| 2026-05-06 01:24 | 33.99980 | -109.50292 | 35715 ft | 558 kts | 75° |
| 2026-05-06 01:24 | 34.01143 | -109.45900 | 35976 ft | 556 kts | 76° |
| 2026-05-06 01:25 | 34.02315 | -109.41469 | 36278 ft | 554 kts | 76° |
| 2026-05-06 01:25 | 34.03480 | -109.37053 | 36472 ft | 553 kts | 75° |
| 2026-05-06 01:25 | 34.04647 | -109.32628 | 36640 ft | 554 kts | 76° |
| 2026-05-06 01:25 | 34.05808 | -109.28213 | 36877 ft | 551 kts | 76° |
| 2026-05-06 01:26 | 34.06963 | -109.23827 | 37058 ft | 548 kts | 76° |
| 2026-05-06 01:26 | 34.08113 | -109.19441 | 37010 ft | 549 kts | 76° |
| 2026-05-06 01:26 | 34.10419 | -109.10627 | 36965 ft | 552 kts | 76° |
| 2026-05-06 01:27 | 34.12730 | -109.01763 | 36916 ft | 555 kts | 76° |
| 2026-05-06 01:27 | 34.15051 | -108.92838 | 36849 ft | 558 kts | 76° |
| 2026-05-06 01:28 | 34.17374 | -108.83874 | 36802 ft | 560 kts | 76° |
| 2026-05-06 01:28 | 34.19695 | -108.74887 | 36797 ft | 561 kts | 76° |
| 2026-05-06 01:29 | 34.22011 | -108.65891 | 36797 ft | 560 kts | 76° |
| 2026-05-06 01:29 | 34.24316 | -108.56908 | 36793 ft | 558 kts | 77° |
| 2026-05-06 01:30 | 34.26606 | -108.47952 | 36784 ft | 556 kts | 76° |
| 2026-05-06 01:30 | 34.28879 | -108.39033 | 36799 ft | 554 kts | 77° |
| 2026-05-06 01:31 | 34.31136 | -108.30143 | 36802 ft | 552 kts | 77° |
| 2026-05-06 01:31 | 34.33379 | -108.21275 | 36804 ft | 551 kts | 77° |
| 2026-05-06 01:32 | 34.35612 | -108.12420 | 36805 ft | 550 kts | 77° |
| 2026-05-06 01:32 | 34.37897 | -108.03580 | 36800 ft | 552 kts | 72° |
| 2026-05-06 01:33 | 34.41466 | -107.95339 | 36824 ft | 555 kts | 55° |
| 2026-05-06 01:33 | 34.45873 | -107.87645 | 36798 ft | 557 kts | 54° |
| 2026-05-06 01:34 | 34.50319 | -107.79914 | 36793 ft | 559 kts | 55° |
| 2026-05-06 01:34 | 34.54674 | -107.72166 | 36796 ft | 561 kts | 56° |
| 2026-05-06 01:35 | 34.59026 | -107.64320 | 36780 ft | 558 kts | 56° |
| 2026-05-06 01:35 | 34.63351 | -107.56499 | 36790 ft | 556 kts | 56° |
| 2026-05-06 01:36 | 34.67660 | -107.48705 | 36777 ft | 554 kts | 56° |
| 2026-05-06 01:36 | 34.71929 | -107.40975 | 36772 ft | 552 kts | 56° |
| 2026-05-06 01:37 | 34.76207 | -107.33212 | 36779 ft | 552 kts | 56° |
| 2026-05-06 01:37 | 34.80485 | -107.25430 | 36785 ft | 553 kts | 56° |
| 2026-05-06 01:38 | 34.84739 | -107.17674 | 36787 ft | 555 kts | 56° |
| 2026-05-06 01:38 | 34.89023 | -107.09846 | 36790 ft | 557 kts | 56° |
| 2026-05-06 01:39 | 34.93332 | -107.01956 | 36782 ft | 559 kts | 56° |
| 2026-05-06 01:39 | 34.97645 | -106.94038 | 36828 ft | 561 kts | 56° |
| 2026-05-06 01:40 | 35.01948 | -106.86123 | 36872 ft | 564 kts | 56° |
| 2026-05-06 01:40 | 35.05957 | -106.77897 | 36898 ft | 564 kts | 66° |
| 2026-05-06 01:41 | 35.12218 | -106.60806 | 36931 ft | 565 kts | 68° |
| 2026-05-06 01:42 | 35.15432 | -106.52033 | 36903 ft | 566 kts | 67° |
| 2026-05-06 01:42 | 35.18688 | -106.43261 | 36876 ft | 566 kts | 67° |
| 2026-05-06 01:43 | 35.21947 | -106.34487 | 36817 ft | 567 kts | 67° |
| 2026-05-06 01:43 | 35.25174 | -106.25761 | 36777 ft | 565 kts | 67° |
| 2026-05-06 01:44 | 35.28404 | -106.16989 | 36781 ft | 564 kts | 67° |
| 2026-05-06 01:44 | 35.31616 | -106.08240 | 36805 ft | 562 kts | 67° |
| 2026-05-06 01:45 | 35.34810 | -105.99515 | 36819 ft | 561 kts | 67° |
| 2026-05-06 01:45 | 35.37988 | -105.90812 | 36825 ft | 560 kts | 67° |
| 2026-05-06 01:46 | 35.41143 | -105.82149 | 36815 ft | 560 kts | 67° |
| 2026-05-06 01:46 | 35.44314 | -105.73419 | 36777 ft | 561 kts | 67° |
| 2026-05-06 01:47 | 35.47487 | -105.64655 | 36744 ft | 562 kts | 67° |
| 2026-05-06 01:47 | 35.50658 | -105.55876 | 36744 ft | 563 kts | 67° |
| 2026-05-06 01:48 | 35.53828 | -105.47073 | 36789 ft | 564 kts | 67° |
| 2026-05-06 01:48 | 35.56978 | -105.38302 | 36837 ft | 565 kts | 68° |
| 2026-05-06 01:49 | 35.60143 | -105.29463 | 36890 ft | 566 kts | 68° |
| 2026-05-06 01:49 | 35.63308 | -105.20599 | 36930 ft | 567 kts | 68° |
| 2026-05-06 01:50 | 35.66653 | -105.11811 | 36917 ft | 568 kts | 58° |
| 2026-05-06 01:50 | 35.70997 | -105.03700 | 36922 ft | 567 kts | 53° |
| 2026-05-06 01:51 | 35.75462 | -104.95755 | 36866 ft | 568 kts | 54° |
| 2026-05-06 01:51 | 35.79910 | -104.87713 | 36809 ft | 568 kts | 54° |
| 2026-05-06 01:52 | 35.84308 | -104.79614 | 36756 ft | 569 kts | 55° |
| 2026-05-06 01:52 | 35.88700 | -104.71467 | 36739 ft | 570 kts | 55° |
| 2026-05-06 01:53 | 35.93089 | -104.63315 | 36749 ft | 570 kts | 55° |
| 2026-05-06 01:53 | 35.97456 | -104.55196 | 36766 ft | 571 kts | 55° |
| 2026-05-06 01:54 | 36.01848 | -104.47016 | 36760 ft | 572 kts | 55° |
| 2026-05-06 01:54 | 36.06232 | -104.38830 | 36771 ft | 572 kts | 55° |
| 2026-05-06 01:55 | 36.10615 | -104.30625 | 36785 ft | 572 kts | 55° |
| 2026-05-06 01:55 | 36.14995 | -104.22407 | 36784 ft | 572 kts | 55° |
| 2026-05-06 01:56 | 36.19360 | -104.14196 | 36798 ft | 571 kts | 55° |
| 2026-05-06 01:56 | 36.23714 | -104.05988 | 36814 ft | 570 kts | 55° |
| 2026-05-06 01:57 | 36.28060 | -103.97774 | 36821 ft | 570 kts | 55° |
| 2026-05-06 01:57 | 36.32393 | -103.89564 | 36837 ft | 569 kts | 55° |
| 2026-05-06 01:58 | 36.36716 | -103.81355 | 36851 ft | 568 kts | 55° |
| 2026-05-06 01:58 | 36.41034 | -103.73134 | 36848 ft | 568 kts | 55° |
| 2026-05-06 01:59 | 36.45345 | -103.64908 | 36859 ft | 568 kts | 55° |
| 2026-05-06 01:59 | 36.49645 | -103.56683 | 36872 ft | 568 kts | 55° |
| 2026-05-06 02:00 | 36.53942 | -103.48443 | 36897 ft | 568 kts | 55° |
| 2026-05-06 02:00 | 36.58236 | -103.40189 | 36897 ft | 569 kts | 55° |
| 2026-05-06 02:01 | 36.62524 | -103.31926 | 36912 ft | 569 kts | 55° |
| 2026-05-06 02:01 | 36.66811 | -103.23644 | 36923 ft | 569 kts | 55° |
| 2026-05-06 02:02 | 36.71103 | -103.15331 | 36926 ft | 571 kts | 55° |
| 2026-05-06 02:02 | 36.75190 | -103.06848 | 36901 ft | 573 kts | 63° |
| 2026-05-06 02:03 | 36.78576 | -102.97847 | 36907 ft | 574 kts | 66° |
| 2026-05-06 02:03 | 36.81856 | -102.88773 | 36904 ft | 574 kts | 65° |
| 2026-05-06 02:04 | 36.85151 | -102.79766 | 36905 ft | 574 kts | 65° |
| 2026-05-06 02:04 | 36.88507 | -102.70710 | 36905 ft | 575 kts | 65° |
| 2026-05-06 02:05 | 36.91868 | -102.61657 | 36909 ft | 574 kts | 65° |
| 2026-05-06 02:05 | 36.95220 | -102.52592 | 36914 ft | 574 kts | 65° |
| 2026-05-06 02:06 | 36.98559 | -102.43520 | 36913 ft | 574 kts | 65° |
| 2026-05-06 02:06 | 37.01888 | -102.34444 | 36913 ft | 574 kts | 65° |
| 2026-05-06 02:07 | 37.05208 | -102.25365 | 36933 ft | 573 kts | 65° |
| 2026-05-06 02:07 | 37.08520 | -102.16285 | 36942 ft | 573 kts | 65° |
| 2026-05-06 02:08 | 37.11826 | -102.07196 | 36973 ft | 573 kts | 65° |
| 2026-05-06 02:08 | 37.15121 | -101.98107 | 36976 ft | 573 kts | 65° |
| 2026-05-06 02:09 | 37.18410 | -101.89008 | 36990 ft | 573 kts | 65° |
| 2026-05-06 02:09 | 37.21693 | -101.79901 | 36986 ft | 573 kts | 65° |
| 2026-05-06 02:10 | 37.24969 | -101.70782 | 36969 ft | 573 kts | 65° |
| 2026-05-06 02:10 | 37.28240 | -101.61652 | 36965 ft | 573 kts | 65° |
| 2026-05-06 02:11 | 37.31506 | -101.52509 | 36967 ft | 574 kts | 65° |
| 2026-05-06 02:11 | 37.34767 | -101.43352 | 36982 ft | 574 kts | 65° |
| 2026-05-06 02:12 | 37.38017 | -101.34196 | 36979 ft | 574 kts | 65° |
| 2026-05-06 02:12 | 37.41266 | -101.25017 | 36983 ft | 574 kts | 65° |
| 2026-05-06 02:13 | 37.44509 | -101.15826 | 36981 ft | 575 kts | 65° |
| 2026-05-06 02:13 | 37.47747 | -101.06623 | 36986 ft | 575 kts | 65° |
| 2026-05-06 02:14 | 37.50977 | -100.97411 | 37000 ft | 575 kts | 65° |
| 2026-05-06 02:14 | 37.54205 | -100.88179 | 37007 ft | 576 kts | 65° |
| 2026-05-06 02:15 | 37.57424 | -100.78945 | 37006 ft | 576 kts | 65° |
| 2026-05-06 02:15 | 37.60637 | -100.69695 | 37005 ft | 576 kts | 65° |
| 2026-05-06 02:16 | 37.63843 | -100.60441 | 37004 ft | 576 kts | 65° |
| 2026-05-06 02:16 | 37.67042 | -100.51177 | 37005 ft | 576 kts | 65° |
| 2026-05-06 02:17 | 37.70231 | -100.41913 | 37002 ft | 575 kts | 65° |
| 2026-05-06 02:17 | 37.73411 | -100.32643 | 37007 ft | 575 kts | 65° |
| 2026-05-06 02:18 | 37.76583 | -100.23372 | 37013 ft | 574 kts | 65° |
| 2026-05-06 02:18 | 37.79742 | -100.14108 | 37020 ft | 574 kts | 65° |
| 2026-05-06 02:19 | 37.82892 | -100.04841 | 37016 ft | 573 kts | 65° |
| 2026-05-06 02:19 | 37.86033 | -99.95571 | 37019 ft | 573 kts | 65° |
| 2026-05-06 02:20 | 37.90726 | -99.81666 | 37016 ft | 573 kts | 65° |
| 2026-05-06 02:21 | 37.93845 | -99.72387 | 37014 ft | 572 kts | 66° |
| 2026-05-06 02:21 | 37.96953 | -99.63111 | 37021 ft | 572 kts | 66° |
| 2026-05-06 02:22 | 38.00055 | -99.53826 | 37022 ft | 572 kts | 66° |
| 2026-05-06 02:22 | 38.03149 | -99.44532 | 37027 ft | 572 kts | 66° |
| 2026-05-06 02:23 | 38.05713 | -99.36808 | 37038 ft | 572 kts | 66° |
| 2026-05-06 02:23 | 38.08793 | -99.27503 | 37040 ft | 572 kts | 66° |
| 2026-05-06 02:24 | 38.11868 | -99.18185 | 37045 ft | 572 kts | 66° |
| 2026-05-06 02:24 | 38.14934 | -99.08863 | 37052 ft | 572 kts | 66° |
| 2026-05-06 02:25 | 38.17994 | -98.99527 | 37047 ft | 573 kts | 66° |
| 2026-05-06 02:25 | 38.21049 | -98.90176 | 37054 ft | 573 kts | 66° |
| 2026-05-06 02:26 | 38.24101 | -98.80806 | 37057 ft | 573 kts | 66° |
| 2026-05-06 02:26 | 38.27144 | -98.71430 | 37051 ft | 573 kts | 66° |
| 2026-05-06 02:27 | 38.30162 | -98.62103 | 37048 ft | 573 kts | 66° |
| 2026-05-06 02:27 | 38.33193 | -98.52704 | 37044 ft | 573 kts | 66° |
| 2026-05-06 02:28 | 38.36220 | -98.43283 | 37054 ft | 574 kts | 66° |
| 2026-05-06 02:28 | 38.39240 | -98.33857 | 37068 ft | 574 kts | 66° |
| 2026-05-06 02:29 | 38.42232 | -98.24484 | 37071 ft | 574 kts | 66° |
| 2026-05-06 02:29 | 38.45236 | -98.15042 | 37055 ft | 574 kts | 66° |
| 2026-05-06 02:30 | 38.48234 | -98.05588 | 37044 ft | 574 kts | 67° |
| 2026-05-06 02:30 | 38.51242 | -97.96134 | 37023 ft | 574 kts | 66° |
| 2026-05-06 02:31 | 38.54331 | -97.86809 | 37033 ft | 573 kts | 65° |
| 2026-05-06 02:31 | 38.57466 | -97.77445 | 37029 ft | 573 kts | 65° |
| 2026-05-06 02:32 | 38.60578 | -97.68068 | 37032 ft | 573 kts | 65° |
| 2026-05-06 02:32 | 38.63666 | -97.58677 | 37052 ft | 573 kts | 66° |
| 2026-05-06 02:33 | 38.66742 | -97.49279 | 37041 ft | 573 kts | 66° |
| 2026-05-06 02:33 | 38.67759 | -97.46164 | 37044 ft | 573 kts | 66° |
| 2026-05-06 02:34 | 38.72874 | -97.30458 | 37028 ft | 573 kts | 66° |
| 2026-05-06 02:34 | 38.75933 | -97.21027 | 37024 ft | 573 kts | 66° |
| 2026-05-06 02:35 | 38.78981 | -97.11599 | 37017 ft | 573 kts | 66° |
| 2026-05-06 02:35 | 38.82026 | -97.02147 | 37011 ft | 573 kts | 66° |
| 2026-05-06 02:36 | 38.85063 | -96.92691 | 37007 ft | 574 kts | 66° |
| 2026-05-06 02:36 | 38.88093 | -96.83222 | 37006 ft | 574 kts | 66° |
| 2026-05-06 02:37 | 38.91099 | -96.73797 | 37005 ft | 574 kts | 66° |
| 2026-05-06 02:37 | 38.94113 | -96.64315 | 37009 ft | 575 kts | 66° |
| 2026-05-06 02:38 | 38.97129 | -96.54795 | 37005 ft | 575 kts | 66° |
| 2026-05-06 02:38 | 39.00138 | -96.45261 | 37002 ft | 575 kts | 66° |
| 2026-05-06 02:39 | 39.03141 | -96.35717 | 37003 ft | 576 kts | 66° |
| 2026-05-06 02:39 | 39.06138 | -96.26158 | 37000 ft | 575 kts | 66° |
| 2026-05-06 02:40 | 39.09123 | -96.16604 | 37009 ft | 575 kts | 66° |
| 2026-05-06 02:40 | 39.12101 | -96.07041 | 36999 ft | 575 kts | 66° |
| 2026-05-06 02:41 | 39.15072 | -95.97467 | 36999 ft | 575 kts | 66° |
| 2026-05-06 02:41 | 39.18032 | -95.87894 | 36998 ft | 575 kts | 66° |
| 2026-05-06 02:42 | 39.20983 | -95.78316 | 36995 ft | 575 kts | 66° |
| 2026-05-06 02:42 | 39.23926 | -95.68732 | 36993 ft | 575 kts | 66° |
| 2026-05-06 02:43 | 39.26862 | -95.59135 | 36992 ft | 575 kts | 67° |
| 2026-05-06 02:43 | 39.29793 | -95.49524 | 36984 ft | 575 kts | 67° |
| 2026-05-06 02:44 | 39.32712 | -95.39915 | 36996 ft | 575 kts | 67° |
| 2026-05-06 02:44 | 39.35622 | -95.30304 | 36988 ft | 575 kts | 67° |
| 2026-05-06 02:45 | 39.38526 | -95.20678 | 36988 ft | 574 kts | 67° |
| 2026-05-06 02:45 | 39.41420 | -95.11052 | 36980 ft | 574 kts | 67° |
| 2026-05-06 02:46 | 39.44281 | -95.01498 | 36982 ft | 574 kts | 67° |
| 2026-05-06 02:46 | 39.47172 | -94.91812 | 36976 ft | 573 kts | 67° |
| 2026-05-06 02:47 | 39.50033 | -94.82194 | 36975 ft | 572 kts | 67° |
| 2026-05-06 02:47 | 39.52864 | -94.72638 | 36975 ft | 572 kts | 67° |
| 2026-05-06 02:48 | 39.55703 | -94.63023 | 36978 ft | 571 kts | 68° |
| 2026-05-06 02:48 | 39.58529 | -94.53419 | 36995 ft | 570 kts | 68° |
| 2026-05-06 02:49 | 39.61345 | -94.43812 | 37011 ft | 569 kts | 68° |
| 2026-05-06 02:49 | 39.64146 | -94.34223 | 37025 ft | 569 kts | 68° |
| 2026-05-06 02:50 | 39.66938 | -94.24627 | 37024 ft | 568 kts | 68° |
| 2026-05-06 02:50 | 39.69720 | -94.15035 | 37030 ft | 567 kts | 68° |
| 2026-05-06 02:51 | 39.72493 | -94.05436 | 37017 ft | 567 kts | 68° |
| 2026-05-06 02:51 | 39.75256 | -93.95835 | 37002 ft | 568 kts | 68° |
| 2026-05-06 02:52 | 39.78014 | -93.86222 | 36984 ft | 568 kts | 68° |
| 2026-05-06 02:52 | 39.80766 | -93.76590 | 36978 ft | 568 kts | 68° |
| 2026-05-06 02:53 | 39.83513 | -93.66941 | 36983 ft | 569 kts | 68° |
| 2026-05-06 02:53 | 39.86255 | -93.57272 | 36982 ft | 569 kts | 68° |
| 2026-05-06 02:54 | 39.88992 | -93.47587 | 36979 ft | 570 kts | 68° |
| 2026-05-06 02:54 | 39.91720 | -93.37898 | 36981 ft | 570 kts | 68° |
| 2026-05-06 02:55 | 39.94441 | -93.28195 | 36975 ft | 571 kts | 68° |
| 2026-05-06 02:55 | 39.97158 | -93.18470 | 36974 ft | 571 kts | 68° |
| 2026-05-06 02:56 | 39.99865 | -93.08744 | 36977 ft | 570 kts | 68° |
| 2026-05-06 02:56 | 40.02563 | -92.99014 | 36970 ft | 570 kts | 68° |
| 2026-05-06 02:57 | 40.05248 | -92.89291 | 36972 ft | 569 kts | 68° |
| 2026-05-06 02:57 | 40.07923 | -92.79571 | 36968 ft | 569 kts | 68° |
| 2026-05-06 02:58 | 40.10589 | -92.69842 | 36963 ft | 568 kts | 68° |
| 2026-05-06 02:58 | 40.13245 | -92.60122 | 36973 ft | 568 kts | 69° |
| 2026-05-06 02:59 | 40.15504 | -92.50303 | 36968 ft | 568 kts | 75° |
| 2026-05-06 02:59 | 40.17390 | -92.40275 | 36976 ft | 568 kts | 76° |
| 2026-05-06 03:00 | 40.19276 | -92.30240 | 36967 ft | 568 kts | 75° |
| 2026-05-06 03:00 | 40.21230 | -92.20245 | 36961 ft | 567 kts | 75° |
| 2026-05-06 03:01 | 40.23211 | -92.10228 | 36959 ft | 567 kts | 75° |
| 2026-05-06 03:01 | 40.25176 | -92.00228 | 36951 ft | 567 kts | 75° |
| 2026-05-06 03:02 | 40.27124 | -91.90225 | 36958 ft | 567 kts | 75° |
| 2026-05-06 03:02 | 40.29061 | -91.80215 | 36955 ft | 567 kts | 75° |
| 2026-05-06 03:02 | 40.30029 | -91.75198 | 36796 ft | 570 kts | 75° |
| 2026-05-06 03:03 | 40.30997 | -91.70170 | 36431 ft | 567 kts | 75° |
| 2026-05-06 03:03 | 40.31955 | -91.65175 | 36054 ft | 562 kts | 75° |
| 2026-05-06 03:03 | 40.32904 | -91.60218 | 35672 ft | 558 kts | 75° |
| 2026-05-06 03:03 | 40.33844 | -91.55295 | 35273 ft | 555 kts | 75° |
| 2026-05-06 03:04 | 40.34776 | -91.50410 | 34885 ft | 552 kts | 75° |
| 2026-05-06 03:04 | 40.35703 | -91.45545 | 34503 ft | 548 kts | 74° |
| 2026-05-06 03:04 | 40.36834 | -91.40784 | 34059 ft | 544 kts | 65° |
| 2026-05-06 03:04 | 40.38243 | -91.36208 | 33659 ft | 540 kts | 63° |
| 2026-05-06 03:05 | 40.39708 | -91.31690 | 33228 ft | 536 kts | 63° |
| 2026-05-06 03:05 | 40.41174 | -91.27195 | 32813 ft | 532 kts | 64° |
| 2026-05-06 03:05 | 40.42599 | -91.22756 | 32407 ft | 523 kts | 65° |
| 2026-05-06 03:05 | 40.43977 | -91.18380 | 32035 ft | 514 kts | 66° |
| 2026-05-06 03:06 | 40.45302 | -91.14121 | 31664 ft | 506 kts | 66° |
| 2026-05-06 03:06 | 40.46617 | -91.09879 | 31290 ft | 499 kts | 67° |
| 2026-05-06 03:06 | 40.47917 | -91.05686 | 30921 ft | 491 kts | 67° |
| 2026-05-06 03:06 | 40.49187 | -91.01571 | 30561 ft | 484 kts | 68° |
| 2026-05-06 03:07 | 40.50438 | -90.97491 | 30198 ft | 477 kts | 69° |
| 2026-05-06 03:07 | 40.51666 | -90.93472 | 29807 ft | 470 kts | 69° |
| 2026-05-06 03:07 | 40.52875 | -90.89507 | 29392 ft | 463 kts | 69° |
| 2026-05-06 03:07 | 40.54062 | -90.85609 | 29046 ft | 455 kts | 69° |
| 2026-05-06 03:08 | 40.54836 | -90.83066 | 28812 ft | 451 kts | 69° |
| 2026-05-06 03:08 | 40.55992 | -90.79263 | 28465 ft | 444 kts | 69° |
| 2026-05-06 03:08 | 40.57137 | -90.75492 | 28145 ft | 446 kts | 69° |
| 2026-05-06 03:08 | 40.58289 | -90.71690 | 27807 ft | 450 kts | 69° |
| 2026-05-06 03:09 | 40.59450 | -90.67855 | 27452 ft | 451 kts | 70° |
| 2026-05-06 03:09 | 40.60605 | -90.64035 | 27083 ft | 447 kts | 70° |
| 2026-05-06 03:09 | 40.61747 | -90.60256 | 26735 ft | 443 kts | 70° |
| 2026-05-06 03:09 | 40.62879 | -90.56505 | 26389 ft | 439 kts | 70° |
| 2026-05-06 03:10 | 40.64000 | -90.52782 | 26042 ft | 436 kts | 70° |
| 2026-05-06 03:10 | 40.65112 | -90.49085 | 25718 ft | 433 kts | 70° |
| 2026-05-06 03:10 | 40.66215 | -90.45410 | 25373 ft | 429 kts | 70° |
| 2026-05-06 03:10 | 40.67308 | -90.41765 | 25035 ft | 427 kts | 70° |
| 2026-05-06 03:11 | 40.68397 | -90.38129 | 24705 ft | 427 kts | 71° |
| 2026-05-06 03:11 | 40.69487 | -90.34485 | 24386 ft | 427 kts | 71° |
| 2026-05-06 03:11 | 40.70573 | -90.30850 | 24034 ft | 425 kts | 71° |
| 2026-05-06 03:11 | 40.71651 | -90.27234 | 23719 ft | 422 kts | 71° |
| 2026-05-06 03:12 | 40.72722 | -90.23634 | 23352 ft | 421 kts | 71° |
| 2026-05-06 03:12 | 40.73772 | -90.20094 | 22998 ft | 419 kts | 71° |
| 2026-05-06 03:12 | 40.74835 | -90.16506 | 22659 ft | 420 kts | 71° |
| 2026-05-06 03:12 | 40.75895 | -90.12923 | 22320 ft | 419 kts | 70° |
| 2026-05-06 03:13 | 40.76954 | -90.09343 | 21988 ft | 417 kts | 70° |
| 2026-05-06 03:13 | 40.78003 | -90.05789 | 21658 ft | 414 kts | 70° |
| 2026-05-06 03:13 | 40.79044 | -90.02259 | 21331 ft | 412 kts | 70° |
| 2026-05-06 03:13 | 40.80080 | -89.98742 | 21024 ft | 409 kts | 69° |
| 2026-05-06 03:14 | 40.81105 | -89.95257 | 20713 ft | 406 kts | 69° |
| 2026-05-06 03:14 | 40.82122 | -89.91792 | 20404 ft | 404 kts | 69° |
| 2026-05-06 03:14 | 40.83134 | -89.88341 | 20100 ft | 401 kts | 69° |
| 2026-05-06 03:14 | 40.84140 | -89.84910 | 19794 ft | 399 kts | 68° |
| 2026-05-06 03:15 | 40.85137 | -89.81503 | 19489 ft | 396 kts | 68° |
| 2026-05-06 03:15 | 40.86127 | -89.78116 | 19182 ft | 394 kts | 68° |
| 2026-05-06 03:15 | 40.87157 | -89.74772 | 18861 ft | 390 kts | 62° |
| 2026-05-06 03:15 | 40.88442 | -89.71657 | 18543 ft | 383 kts | 57° |
| 2026-05-06 03:16 | 40.89797 | -89.68660 | 18222 ft | 377 kts | 56° |
| 2026-05-06 03:16 | 40.91150 | -89.65711 | 17865 ft | 372 kts | 56° |
| 2026-05-06 03:16 | 40.92453 | -89.62842 | 17537 ft | 366 kts | 56° |
| 2026-05-06 03:16 | 40.93737 | -89.59973 | 17314 ft | 358 kts | 56° |
| 2026-05-06 03:17 | 40.94994 | -89.57139 | 17007 ft | 355 kts | 57° |
| 2026-05-06 03:17 | 40.96236 | -89.54322 | 16712 ft | 353 kts | 57° |
| 2026-05-06 03:17 | 40.97464 | -89.51531 | 16420 ft | 350 kts | 57° |
| 2026-05-06 03:17 | 40.98686 | -89.48747 | 16116 ft | 348 kts | 57° |
| 2026-05-06 03:18 | 40.99901 | -89.45979 | 15821 ft | 347 kts | 57° |
| 2026-05-06 03:18 | 41.01113 | -89.43214 | 15498 ft | 347 kts | 57° |
| 2026-05-06 03:18 | 41.02322 | -89.40452 | 15181 ft | 346 kts | 57° |
| 2026-05-06 03:18 | 41.03528 | -89.37696 | 14862 ft | 346 kts | 57° |
| 2026-05-06 03:19 | 41.04730 | -89.34946 | 14534 ft | 345 kts | 57° |
| 2026-05-06 03:19 | 41.05930 | -89.32199 | 14215 ft | 343 kts | 57° |
| 2026-05-06 03:19 | 41.06995 | -89.29758 | 13925 ft | 339 kts | 57° |
| 2026-05-06 03:19 | 41.08170 | -89.27060 | 13599 ft | 336 kts | 57° |
| 2026-05-06 03:20 | 41.10478 | -89.21760 | 12925 ft | 328 kts | 57° |
| 2026-05-06 03:20 | 41.11608 | -89.19161 | 12612 ft | 324 kts | 57° |
| 2026-05-06 03:20 | 41.12725 | -89.16590 | 12310 ft | 320 kts | 57° |
| 2026-05-06 03:21 | 41.13831 | -89.14043 | 12017 ft | 316 kts | 57° |
| 2026-05-06 03:21 | 41.14922 | -89.11527 | 11727 ft | 313 kts | 58° |
| 2026-05-06 03:21 | 41.16005 | -89.09028 | 11432 ft | 311 kts | 57° |
| 2026-05-06 03:21 | 41.17078 | -89.06551 | 11150 ft | 309 kts | 58° |
| 2026-05-06 03:22 | 41.18131 | -89.04118 | 10870 ft | 307 kts | 58° |
| 2026-05-06 03:22 | 41.19194 | -89.01661 | 10586 ft | 306 kts | 58° |
| 2026-05-06 03:22 | 41.20252 | -88.99211 | 10302 ft | 305 kts | 58° |
| 2026-05-06 03:22 | 41.21304 | -88.96767 | 10029 ft | 304 kts | 59° |
| 2026-05-06 03:23 | 41.22246 | -88.94281 | 9855 ft | 299 kts | 63° |
| 2026-05-06 03:23 | 41.23109 | -88.91791 | 9671 ft | 294 kts | 64° |
| 2026-05-06 03:23 | 41.23952 | -88.89334 | 9494 ft | 291 kts | 63° |
| 2026-05-06 03:23 | 41.24797 | -88.86899 | 9334 ft | 291 kts | 63° |
| 2026-05-06 03:24 | 41.25656 | -88.84448 | 9186 ft | 294 kts | 63° |
| 2026-05-06 03:24 | 41.26522 | -88.81983 | 9020 ft | 294 kts | 63° |
| 2026-05-06 03:24 | 41.27384 | -88.79533 | 8849 ft | 291 kts | 63° |
| 2026-05-06 03:24 | 41.28238 | -88.77104 | 8690 ft | 289 kts | 63° |
| 2026-05-06 03:25 | 41.29086 | -88.74690 | 8530 ft | 286 kts | 63° |
| 2026-05-06 03:25 | 41.29923 | -88.72304 | 8366 ft | 284 kts | 63° |
| 2026-05-06 03:25 | 41.30752 | -88.69941 | 8210 ft | 282 kts | 63° |
| 2026-05-06 03:25 | 41.31566 | -88.67618 | 8060 ft | 280 kts | 62° |
| 2026-05-06 03:26 | 41.32387 | -88.65272 | 7910 ft | 278 kts | 62° |
| 2026-05-06 03:26 | 41.33202 | -88.62944 | 7769 ft | 278 kts | 62° |
| 2026-05-06 03:26 | 41.34023 | -88.60598 | 7621 ft | 280 kts | 62° |
| 2026-05-06 03:26 | 41.34847 | -88.58240 | 7469 ft | 281 kts | 62° |
| 2026-05-06 03:27 | 41.35668 | -88.55887 | 7315 ft | 278 kts | 62° |
| 2026-05-06 03:27 | 41.36473 | -88.53576 | 7153 ft | 273 kts | 62° |
| 2026-05-06 03:27 | 41.37266 | -88.51309 | 7005 ft | 267 kts | 60° |
| 2026-05-06 03:27 | 41.38249 | -88.49260 | 6908 ft | 260 kts | 50° |
| 2026-05-06 03:28 | 41.39280 | -88.47268 | 6767 ft | 262 kts | 54° |
| 2026-05-06 03:28 | 41.40267 | -88.45217 | 6587 ft | 263 kts | 54° |
| 2026-05-06 03:28 | 41.41241 | -88.43168 | 6407 ft | 259 kts | 54° |
| 2026-05-06 03:28 | 41.42200 | -88.41154 | 6227 ft | 255 kts | 54° |
| 2026-05-06 03:29 | 41.43131 | -88.39203 | 6068 ft | 241 kts | 54° |
| 2026-05-06 03:29 | 41.44008 | -88.37369 | 5845 ft | 228 kts | 54° |
| 2026-05-06 03:29 | 41.44836 | -88.35644 | 5662 ft | 219 kts | 54° |
| 2026-05-06 03:29 | 41.45647 | -88.33958 | 5463 ft | 213 kts | 53° |
| 2026-05-06 03:30 | 41.46437 | -88.32319 | 5280 ft | 209 kts | 53° |
| 2026-05-06 03:30 | 41.47222 | -88.30692 | 5100 ft | 208 kts | 53° |
| 2026-05-06 03:30 | 41.48003 | -88.29075 | 4929 ft | 208 kts | 53° |
| 2026-05-06 03:30 | 41.48784 | -88.27455 | 4757 ft | 208 kts | 54° |
| 2026-05-06 03:31 | 41.49566 | -88.25834 | 4574 ft | 207 kts | 54° |
| 2026-05-06 03:31 | 41.50339 | -88.24229 | 4458 ft | 204 kts | 54° |
| 2026-05-06 03:31 | 41.51102 | -88.22644 | 4345 ft | 201 kts | 53° |
| 2026-05-06 03:31 | 41.51857 | -88.21075 | 4238 ft | 202 kts | 54° |
| 2026-05-06 03:32 | 41.52619 | -88.19493 | 4150 ft | 205 kts | 54° |
| 2026-05-06 03:32 | 41.53399 | -88.17873 | 4005 ft | 205 kts | 54° |
| 2026-05-06 03:32 | 41.54151 | -88.16304 | 3855 ft | 196 kts | 53° |
| 2026-05-06 03:32 | 41.54868 | -88.14810 | 3718 ft | 188 kts | 53° |
| 2026-05-06 03:33 | 41.55563 | -88.13362 | 3651 ft | 183 kts | 53° |
| 2026-05-06 03:33 | 41.56250 | -88.11931 | 3587 ft | 183 kts | 53° |
| 2026-05-06 03:33 | 41.56933 | -88.10508 | 3494 ft | 181 kts | 53° |
| 2026-05-06 03:33 | 41.57606 | -88.09105 | 3381 ft | 178 kts | 53° |
| 2026-05-06 03:34 | 41.58268 | -88.07725 | 3275 ft | 174 kts | 53° |
| 2026-05-06 03:34 | 41.58917 | -88.06369 | 3159 ft | 172 kts | 53° |
| 2026-05-06 03:34 | 41.59561 | -88.05025 | 3075 ft | 172 kts | 53° |
| 2026-05-06 03:34 | 41.60209 | -88.03674 | 3000 ft | 173 kts | 53° |
| 2026-05-06 03:35 | 41.60857 | -88.02319 | 2925 ft | 173 kts | 53° |
| 2026-05-06 03:35 | 41.61495 | -88.00984 | 2845 ft | 165 kts | 52° |
| 2026-05-06 03:35 | 41.62098 | -87.99721 | 2748 ft | 159 kts | 52° |
| 2026-05-06 03:35 | 41.62697 | -87.98470 | 2714 ft | 162 kts | 52° |
| 2026-05-06 03:36 | 41.63306 | -87.97198 | 2664 ft | 163 kts | 52° |
| 2026-05-06 03:36 | 41.63909 | -87.95936 | 2603 ft | 163 kts | 52° |
| 2026-05-06 03:36 | 41.64515 | -87.94666 | 2565 ft | 161 kts | 52° |
| 2026-05-06 03:36 | 41.65122 | -87.93393 | 2507 ft | 162 kts | 52° |
| 2026-05-06 03:37 | 41.65734 | -87.92112 | 2397 ft | 163 kts | 52° |
| 2026-05-06 03:37 | 41.66397 | -87.90892 | 2321 ft | 161 kts | 39° |
| 2026-05-06 03:37 | 41.67216 | -87.89903 | 2317 ft | 157 kts | 38° |
| 2026-05-06 03:37 | 41.68015 | -87.88902 | 2301 ft | 158 kts | 38° |
| 2026-05-06 03:38 | 41.68818 | -87.87894 | 2300 ft | 158 kts | 38° |
| 2026-05-06 03:38 | 41.69587 | -87.86836 | 2332 ft | 159 kts | 47° |
| 2026-05-06 03:38 | 41.70248 | -87.85663 | 2369 ft | 158 kts | 47° |
| 2026-05-06 03:38 | 41.70974 | -87.84558 | 2334 ft | 158 kts | 37° |
| 2026-05-06 03:39 | 41.71810 | -87.83569 | 2238 ft | 162 kts | 38° |
| 2026-05-06 03:39 | 41.72619 | -87.82573 | 2043 ft | 152 kts | 38° |
| 2026-05-06 03:39 | 41.73364 | -87.81654 | 2100 ft | 145 kts | 37° |
| 2026-05-06 03:39 | 41.74111 | -87.80735 | 1864 ft | 145 kts | 39° |
| 2026-05-06 03:40 | 41.74830 | -87.79824 | 1595 ft | 144 kts | 39° |
| 2026-05-06 03:40 | 41.75567 | -87.78910 | 1380 ft | 143 kts | 40° |
| 2026-05-06 03:40 | 41.76299 | -87.77991 | 1159 ft | 147 kts | 41° |
| 2026-05-06 03:40 | 41.77038 | -87.77051 | 951 ft | 147 kts | 41° |
| 2026-05-06 03:41 | 41.77792 | -87.76090 | 718 ft | 149 kts | 41° |
| 2026-05-06 03:41 | 41.78512 | -87.75177 | 631 ft | 128 kts | 43° |
| 2026-05-06 03:41 | 41.78912 | -87.74672 | 635 ft | 49 kts | 43° |
| 2026-05-06 03:41 | 41.79067 | -87.74474 | 635 ft | 19 kts | 43° |
| 2026-05-06 03:42 | 41.79085 | -87.74351 | 634 ft | 14 kts | 129° |
| 2026-05-06 03:42 | 41.79018 | -87.74379 | 634 ft | 11 kts | 224° |
| 2026-05-06 03:42 | 41.78962 | -87.74452 | 635 ft | 11 kts | 223° |
| 2026-05-06 03:42 | 41.78906 | -87.74522 | 630 ft | 11 kts | 223° |
| 2026-05-06 03:43 | 41.78854 | -87.74588 | 633 ft | 10 kts | 223° |
| 2026-05-06 03:43 | 41.78799 | -87.74657 | 633 ft | 12 kts | 223° |
| 2026-05-06 03:43 | 41.78724 | -87.74751 | 631 ft | 16 kts | 223° |
| 2026-05-06 03:43 | 41.78619 | -87.74781 | 632 ft | 16 kts | 168° |
| 2026-05-06 03:44 | 41.78539 | -87.74689 | 631 ft | 15 kts | 133° |
| 2026-05-06 03:44 | 41.78499 | -87.74615 | 631 ft | 8 kts | 94° |
| 2026-05-06 03:44 | 41.78532 | -87.74556 | 634 ft | 8 kts | 43° |
| 2026-05-06 03:44 | 41.78572 | -87.74506 | 630 ft | 8 kts | 43° |
| 2026-05-06 03:45 | 41.78605 | -87.74471 | 628 ft | 5 kts | 19° |
| 2026-05-06 03:45 | 41.78636 | -87.74493 | 631 ft | 4 kts | 316° |
| 2026-05-06 03:45 | 41.78646 | -87.74508 | 628 ft | 1 kts | 312° |
| 2026-05-06 03:45 | 41.78646 | -87.74509 | 628 ft | 0 kts | 312° |